createdAt,value
2023-05-10T00:00:19.870Z,43.83
2023-05-10T00:01:22.572Z,44.01
2023-05-10T00:02:26.668Z,44.22
2023-05-10T00:03:29.972Z,44.30
2023-05-10T00:04:33.793Z,44.84
2023-05-10T00:05:36.726Z,44.75
2023-05-10T00:06:40.574Z,44.55
2023-05-10T00:07:46.024Z,45.01
2023-05-10T00:08:49.820Z,44.90
2023-05-10T00:09:52.853Z,45.04
2023-05-10T00:10:56.786Z,45.52
2023-05-10T00:11:59.868Z,45.90
2023-05-10T00:13:04.518Z,46.11
2023-05-10T00:14:07.583Z,45.51
2023-05-10T00:15:13.473Z,45.94
2023-05-10T00:16:16.644Z,46.20
2023-05-10T00:17:20.315Z,46.36
2023-05-10T00:18:22.689Z,46.29
2023-05-10T00:19:26.165Z,46.33
2023-05-10T00:20:28.779Z,46.43
2023-05-10T00:21:33.576Z,46.46
2023-05-10T00:22:36.583Z,46.68
2023-05-10T00:23:40.454Z,46.49
2023-05-10T00:24:43.083Z,46.63
2023-05-10T00:25:47.092Z,46.65
2023-05-10T00:26:49.896Z,46.90
2023-05-10T00:27:56.382Z,47.34
2023-05-10T00:28:59.764Z,47.20
2023-05-10T00:30:03.699Z,47.26
2023-05-10T00:31:10.464Z,47.70
2023-05-10T00:32:15.877Z,47.84
2023-05-10T00:33:20.489Z,47.46
2023-05-10T00:34:24.100Z,47.46
2023-05-10T00:35:27.975Z,47.36
2023-05-10T00:36:30.739Z,47.19
2023-05-10T00:37:34.737Z,47.08
2023-05-10T00:38:37.667Z,47.21
2023-05-10T00:39:41.303Z,47.23
2023-05-10T00:40:43.796Z,47.05
2023-05-10T00:41:55.365Z,47.24
2023-05-10T00:42:59.420Z,47.28
2023-05-10T00:44:03.310Z,47.64
2023-05-10T00:45:07.606Z,47.23
2023-05-10T00:46:13.387Z,47.34
2023-05-10T00:47:17.019Z,47.86
2023-05-10T00:48:21.481Z,47.27
2023-05-10T00:49:24.421Z,48.07
2023-05-10T00:50:28.329Z,47.56
2023-05-10T00:51:32.240Z,47.50
2023-05-10T00:52:36.827Z,47.67
2023-05-10T00:53:39.802Z,47.72
2023-05-10T00:54:43.691Z,47.63
2023-05-10T00:55:47.215Z,47.54
2023-05-10T00:56:51.220Z,47.77
2023-05-10T00:57:54.612Z,47.56
2023-05-10T00:58:58.884Z,47.73
2023-05-10T01:00:03.077Z,47.69
2023-05-10T01:01:08.104Z,47.10
2023-05-10T01:02:14.417Z,46.92
2023-05-10T01:03:18.433Z,46.94
2023-05-10T01:04:26.875Z,46.70
2023-05-10T01:05:31.232Z,45.59
2023-05-10T01:06:34.149Z,45.93
2023-05-10T01:07:37.973Z,45.35
2023-05-10T01:08:41.149Z,45.60
2023-05-10T01:09:45.110Z,45.53
2023-05-10T01:10:50.307Z,45.36
2023-05-10T01:11:54.524Z,44.52
2023-05-10T01:12:58.077Z,44.34
2023-05-10T01:14:02.103Z,44.14
2023-05-10T01:15:07.015Z,43.97
2023-05-10T01:16:11.595Z,44.48
2023-05-10T01:17:17.402Z,44.18
2023-05-10T01:18:23.843Z,44.41
2023-05-10T01:19:29.231Z,42.82
2023-05-10T01:20:39.472Z,43.62
2023-05-10T01:21:54.535Z,43.34
2023-05-10T01:23:30.837Z,43.26
2023-05-10T01:24:47.690Z,43.34
2023-05-10T01:26:32.659Z,42.95
2023-05-10T01:28:01.032Z,43.12
2023-05-10T01:29:40.734Z,43.42
2023-05-10T01:31:05.409Z,43.68
2023-05-10T01:32:27.639Z,43.62
2023-05-10T01:33:32.162Z,44.14
2023-05-10T01:34:42.063Z,44.17
2023-05-10T01:35:49.087Z,43.91
2023-05-10T01:37:01.325Z,44.21
2023-05-10T01:38:13.459Z,43.92
2023-05-10T01:39:26.973Z,44.03
2023-05-10T01:40:34.856Z,43.10
2023-05-10T01:41:47.737Z,43.37
2023-05-10T01:42:54.735Z,43.52
2023-05-10T01:44:04.883Z,42.99
2023-05-10T01:45:16.176Z,42.75
2023-05-10T01:46:27.209Z,42.43
2023-05-10T01:47:37.251Z,42.59
2023-05-10T01:48:48.599Z,42.28
2023-05-10T01:49:53.681Z,42.23
2023-05-10T01:50:59.384Z,41.51
2023-05-10T01:52:08.413Z,41.73
2023-05-10T01:53:15.392Z,41.64
2023-05-10T01:54:20.793Z,41.80
2023-05-10T01:55:27.867Z,41.68
2023-05-10T01:56:34.647Z,41.40
2023-05-10T01:57:40.862Z,41.39
2023-05-10T01:58:46.848Z,41.11
2023-05-10T01:59:53.365Z,40.69
2023-05-10T02:00:57.223Z,40.40
2023-05-10T02:02:01.323Z,40.84
2023-05-10T02:03:08.097Z,40.59
2023-05-10T02:04:14.035Z,40.48
2023-05-10T02:05:18.870Z,40.04
2023-05-10T02:06:24.728Z,40.09
2023-05-10T02:07:30.271Z,40.02
2023-05-10T02:08:38.448Z,40.07
2023-05-10T02:09:42.723Z,39.63
2023-05-10T02:10:49.115Z,39.84
2023-05-10T02:11:52.098Z,40.21
2023-05-10T02:12:57.538Z,40.15
2023-05-10T02:14:01.765Z,39.88
2023-05-10T02:15:09.491Z,40.08
2023-05-10T02:16:14.421Z,40.11
2023-05-10T02:17:19.868Z,39.66
2023-05-10T02:18:25.502Z,39.71
2023-05-10T02:19:31.447Z,39.57
2023-05-10T02:20:36.363Z,39.12
2023-05-10T02:21:41.782Z,39.33
2023-05-10T02:22:46.461Z,39.26
2023-05-10T02:23:53.762Z,39.37
2023-05-10T02:24:57.344Z,39.59
2023-05-10T02:26:02.851Z,39.43
2023-05-10T02:27:07.563Z,38.84
2023-05-10T02:28:14.944Z,38.85
2023-05-10T02:29:18.614Z,39.35
2023-05-10T02:30:24.133Z,38.89
2023-05-10T02:31:27.649Z,39.10
2023-05-10T02:32:32.499Z,39.12
2023-05-10T02:33:37.339Z,38.97
2023-05-10T02:34:41.981Z,38.91
2023-05-10T02:35:45.239Z,38.78
2023-05-10T02:36:49.811Z,38.54
2023-05-10T02:37:52.729Z,38.51
2023-05-10T02:38:57.236Z,38.86
2023-05-10T02:40:00.440Z,39.11
2023-05-10T02:41:06.407Z,38.03
2023-05-10T02:42:09.760Z,38.57
2023-05-10T02:43:16.804Z,38.23
2023-05-10T02:44:21.250Z,38.97
2023-05-10T02:45:30.418Z,38.81
2023-05-10T02:46:33.303Z,38.79
2023-05-10T02:47:37.979Z,38.44
2023-05-10T02:48:42.658Z,39.16
2023-05-10T02:49:46.790Z,39.11
2023-05-10T02:50:52.689Z,39.14
2023-05-10T02:52:00.967Z,38.74
2023-05-10T02:53:11.098Z,38.84
2023-05-10T02:54:21.077Z,38.84
2023-05-10T02:55:33.623Z,38.99
2023-05-10T02:56:43.171Z,38.29
2023-05-10T02:57:59.930Z,39.58
2023-05-10T02:59:04.343Z,39.01
2023-05-10T03:00:09.008Z,39.22
2023-05-10T03:01:12.992Z,39.53
2023-05-10T03:02:15.682Z,38.67
2023-05-10T03:03:19.635Z,38.56
2023-05-10T03:04:25.805Z,38.03
2023-05-10T03:05:32.340Z,39.03
2023-05-10T03:06:38.041Z,38.89
2023-05-10T03:07:42.381Z,39.25
2023-05-10T03:08:45.891Z,40.04
2023-05-10T03:09:51.125Z,39.14
2023-05-10T03:11:03.550Z,40.01
2023-05-10T03:12:15.288Z,40.27
2023-05-10T03:13:30.404Z,40.52
2023-05-10T03:14:48.509Z,40.70
2023-05-10T03:16:00.844Z,41.27
2023-05-10T03:17:12.763Z,41.32
2023-05-10T03:18:22.695Z,42.83
2023-05-10T03:19:30.105Z,41.35
2023-05-10T03:20:37.860Z,41.94
2023-05-10T03:21:47.639Z,41.26
2023-05-10T03:22:54.941Z,41.86
2023-05-10T03:24:02.511Z,42.10
2023-05-10T03:25:08.427Z,41.44
2023-05-10T03:26:21.637Z,40.54
2023-05-10T03:27:27.614Z,40.22
2023-05-10T03:28:34.174Z,40.18
2023-05-10T03:29:38.787Z,40.09
2023-05-10T03:30:44.035Z,39.76
2023-05-10T03:31:48.248Z,39.93
2023-05-10T03:32:52.922Z,39.61
2023-05-10T03:33:55.653Z,39.86
2023-05-10T03:35:09.602Z,40.43
2023-05-10T03:36:14.972Z,39.77
2023-05-10T03:37:17.677Z,40.29
2023-05-10T03:38:21.525Z,40.55
2023-05-10T03:39:24.305Z,39.92
2023-05-10T03:40:33.474Z,39.23
2023-05-10T03:41:36.571Z,39.50
2023-05-10T03:42:40.392Z,39.51
2023-05-10T03:43:43.127Z,40.10
2023-05-10T03:44:46.856Z,39.98
2023-05-10T03:45:49.739Z,40.02
2023-05-10T03:46:53.560Z,39.88
2023-05-10T03:47:56.735Z,40.74
2023-05-10T03:49:00.625Z,40.07
2023-05-10T03:50:05.309Z,39.07
2023-05-10T03:51:10.138Z,41.08
2023-05-10T03:52:13.331Z,39.48
2023-05-10T03:53:17.074Z,39.77
2023-05-10T03:54:19.845Z,40.18
2023-05-10T03:55:23.692Z,40.88
2023-05-10T03:56:27.155Z,40.58
2023-05-10T03:57:31.516Z,40.35
2023-05-10T03:58:34.806Z,40.44
2023-05-10T03:59:38.964Z,40.12
2023-05-10T04:00:46.196Z,39.38
2023-05-10T04:01:51.097Z,38.69
2023-05-10T04:02:53.912Z,37.94
2023-05-10T04:03:57.995Z,36.93
2023-05-10T04:05:00.947Z,37.29
2023-05-10T04:06:07.277Z,37.48
2023-05-10T04:07:11.699Z,37.37
2023-05-10T04:08:16.015Z,38.48
2023-05-10T04:09:18.829Z,39.56
2023-05-10T04:10:22.540Z,41.01
2023-05-10T04:11:26.001Z,39.04
2023-05-10T04:12:29.970Z,38.42
2023-05-10T04:13:32.785Z,37.17
2023-05-10T04:14:36.490Z,36.50
2023-05-10T04:15:38.877Z,36.49
2023-05-10T04:16:42.563Z,37.05
2023-05-10T04:17:45.645Z,35.96
2023-05-10T04:18:49.455Z,36.12
2023-05-10T04:19:54.272Z,36.77
2023-05-10T04:20:58.083Z,37.91
2023-05-10T04:22:03.850Z,36.52
2023-05-10T04:23:07.604Z,36.44
2023-05-10T04:24:10.434Z,36.60
2023-05-10T04:25:14.294Z,35.02
2023-05-10T04:26:16.974Z,35.26
2023-05-10T04:27:20.994Z,36.19
2023-05-10T04:28:24.832Z,34.88
2023-05-10T04:29:27.842Z,35.39
2023-05-10T04:30:31.674Z,35.65
2023-05-10T04:31:34.572Z,35.44
2023-05-10T04:32:38.423Z,34.57
2023-05-10T04:33:41.402Z,34.56
2023-05-10T04:34:45.096Z,35.38
2023-05-10T04:35:47.854Z,35.19
2023-05-10T04:36:52.102Z,35.83
2023-05-10T04:37:56.322Z,36.42
2023-05-10T04:39:00.074Z,35.62
2023-05-10T04:40:04.443Z,35.04
2023-05-10T04:41:09.357Z,34.06
2023-05-10T04:42:12.988Z,35.29
2023-05-10T04:43:16.988Z,34.75
2023-05-10T04:44:19.858Z,34.19
2023-05-10T04:45:23.797Z,34.50
2023-05-10T04:46:26.989Z,34.75
2023-05-10T04:47:30.735Z,33.22
2023-05-10T04:48:33.535Z,33.09
2023-05-10T04:49:37.527Z,32.74
2023-05-10T04:50:41.637Z,31.98
2023-05-10T04:51:45.470Z,31.70
2023-05-10T04:52:48.302Z,32.58
2023-05-10T04:54:05.247Z,33.19
2023-05-10T04:55:11.413Z,32.36
2023-05-10T04:56:15.275Z,32.58
2023-05-10T04:57:18.212Z,32.11
2023-05-10T04:58:22.138Z,31.99
2023-05-10T04:59:25.142Z,32.17
2023-05-10T05:00:28.984Z,31.30
2023-05-10T05:01:34.102Z,30.42
2023-05-10T05:02:37.070Z,31.04
2023-05-10T05:03:40.970Z,30.92
2023-05-10T05:04:43.716Z,30.80
2023-05-10T05:05:47.751Z,30.39
2023-05-10T05:06:52.971Z,30.37
2023-05-10T05:07:57.614Z,28.99
2023-05-10T05:09:02.004Z,29.76
2023-05-10T05:10:06.844Z,30.14
2023-05-10T05:11:09.524Z,30.54
2023-05-10T05:12:15.418Z,29.27
2023-05-10T05:13:18.307Z,29.68
2023-05-10T05:14:22.361Z,29.75
2023-05-10T05:15:25.144Z,29.04
2023-05-10T05:16:29.712Z,28.50
2023-05-10T05:17:32.787Z,29.05
2023-05-10T05:18:36.748Z,28.72
2023-05-10T05:19:39.382Z,28.70
2023-05-10T05:20:43.221Z,28.96
2023-05-10T05:21:46.085Z,28.48
2023-05-10T05:22:50.136Z,28.98
2023-05-10T05:23:52.988Z,29.72
2023-05-10T05:24:59.400Z,29.80
2023-05-10T05:26:03.088Z,30.13
2023-05-10T05:27:07.085Z,30.54
2023-05-10T05:28:09.996Z,29.96
2023-05-10T05:29:13.704Z,30.52
2023-05-10T05:30:16.381Z,29.98
2023-05-10T05:31:20.567Z,29.72
2023-05-10T05:32:23.523Z,30.69
2023-05-10T05:33:27.296Z,29.23
2023-05-10T05:34:30.200Z,28.86
2023-05-10T05:35:33.844Z,28.82
2023-05-10T05:36:39.500Z,29.03
2023-05-10T05:37:42.312Z,28.47
2023-05-10T05:38:46.353Z,28.13
2023-05-10T05:39:49.136Z,28.34
2023-05-10T05:40:54.714Z,28.19
2023-05-10T05:41:57.340Z,28.74
2023-05-10T05:43:01.189Z,28.62
2023-05-10T05:44:03.979Z,29.26
2023-05-10T05:45:10.106Z,28.42
2023-05-10T05:46:13.868Z,29.44
2023-05-10T05:47:16.837Z,29.65
2023-05-10T05:48:20.591Z,29.52
2023-05-10T05:49:23.305Z,29.72
2023-05-10T05:50:27.216Z,30.09
2023-05-10T05:51:30.028Z,30.63
2023-05-10T05:52:33.702Z,30.06
2023-05-10T05:53:36.829Z,29.34
2023-05-10T05:54:40.690Z,28.64
2023-05-10T05:55:54.913Z,28.58
2023-05-10T05:57:01.067Z,28.70
2023-05-10T05:58:04.316Z,29.05
2023-05-10T05:59:08.445Z,28.19
2023-05-10T06:00:13.050Z,28.32
2023-05-10T06:01:15.601Z,28.65
2023-05-10T06:02:19.382Z,30.42
2023-05-10T06:03:23.551Z,28.69
2023-05-10T06:04:26.525Z,29.23
2023-05-10T06:05:30.386Z,28.37
2023-05-10T06:06:34.591Z,28.05
2023-05-10T06:07:37.460Z,28.56
2023-05-10T06:08:41.161Z,28.40
2023-05-10T06:09:43.973Z,28.59
2023-05-10T06:10:47.774Z,28.87
2023-05-10T06:11:51.828Z,28.47
2023-05-10T06:12:55.748Z,28.89
2023-05-10T06:13:58.824Z,28.94
2023-05-10T06:15:03.127Z,29.42
2023-05-10T06:16:07.752Z,29.19
2023-05-10T06:17:11.610Z,29.17
2023-05-10T06:18:14.242Z,28.90
2023-05-10T06:19:18.450Z,28.96
2023-05-10T06:20:21.400Z,29.77
2023-05-10T06:21:25.378Z,29.47
2023-05-10T06:22:29.245Z,29.08
2023-05-10T06:23:32.082Z,29.26
2023-05-10T06:24:35.928Z,29.07
2023-05-10T06:25:40.153Z,29.22
2023-05-10T06:26:43.823Z,29.42
2023-05-10T06:27:51.085Z,29.92
2023-05-10T06:28:57.348Z,30.11
2023-05-10T06:30:11.820Z,29.87
2023-05-10T06:31:17.380Z,29.72
2023-05-10T06:32:20.249Z,30.00
2023-05-10T06:33:23.889Z,28.83
2023-05-10T06:34:26.896Z,29.83
2023-05-10T06:35:31.108Z,30.53
2023-05-10T06:36:33.922Z,29.21
2023-05-10T06:37:37.628Z,29.33
2023-05-10T06:38:40.607Z,29.14
2023-05-10T06:39:44.394Z,31.09
2023-05-10T06:40:47.136Z,30.56
2023-05-10T06:41:51.327Z,30.13
2023-05-10T06:42:58.248Z,30.39
2023-05-10T06:44:00.847Z,31.75
2023-05-10T06:45:05.181Z,30.97
2023-05-10T06:46:09.442Z,30.39
2023-05-10T06:47:13.306Z,30.50
2023-05-10T06:48:16.078Z,30.43
2023-05-10T06:49:20.241Z,30.17
2023-05-10T06:50:22.978Z,30.23
2023-05-10T06:51:27.286Z,29.47
2023-05-10T06:52:30.187Z,29.68
2023-05-10T06:53:34.128Z,29.49
2023-05-10T06:54:36.996Z,29.59
2023-05-10T06:55:40.902Z,30.14
2023-05-10T06:56:43.536Z,30.22
2023-05-10T06:57:47.644Z,30.81
2023-05-10T06:58:51.908Z,30.38
2023-05-10T06:59:56.926Z,31.69
2023-05-10T07:01:05.550Z,29.71
2023-05-10T07:02:08.661Z,30.02
2023-05-10T07:03:12.727Z,29.65
2023-05-10T07:04:15.731Z,29.79
2023-05-10T07:05:20.082Z,30.21
2023-05-10T07:06:32.964Z,30.66
2023-05-10T07:07:37.561Z,30.14
2023-05-10T07:08:41.603Z,30.14
2023-05-10T07:09:44.318Z,30.18
2023-05-10T07:10:48.389Z,30.05
2023-05-10T07:11:51.093Z,30.34
2023-05-10T07:12:55.094Z,29.99
2023-05-10T07:14:02.178Z,29.92
2023-05-10T07:15:06.905Z,29.80
2023-05-10T07:16:10.120Z,29.86
2023-05-10T07:17:14.454Z,29.97
2023-05-10T07:18:18.395Z,29.70
2023-05-10T07:19:23.076Z,29.58
2023-05-10T07:20:26.778Z,28.93
2023-05-10T07:21:30.762Z,28.61
2023-05-10T07:22:34.948Z,28.66
2023-05-10T07:23:38.715Z,29.05
2023-05-10T07:24:42.097Z,29.24
2023-05-10T07:25:47.622Z,29.16
2023-05-10T07:26:51.407Z,28.94
2023-05-10T07:27:55.324Z,29.30
2023-05-10T07:28:58.032Z,29.54
2023-05-10T07:30:04.058Z,28.89
2023-05-10T07:31:08.564Z,28.75
2023-05-10T07:32:11.841Z,28.76
2023-05-10T07:33:16.942Z,29.06
2023-05-10T07:34:19.626Z,29.02
2023-05-10T07:35:23.656Z,28.61
2023-05-10T07:36:26.415Z,29.32
2023-05-10T07:37:30.096Z,28.71
2023-05-10T07:38:33.036Z,29.59
2023-05-10T07:39:36.704Z,30.45
2023-05-10T07:40:40.416Z,31.36
2023-05-10T07:41:44.712Z,31.04
2023-05-10T07:42:47.387Z,30.95
2023-05-10T07:43:51.437Z,30.85
2023-05-10T07:44:55.413Z,30.22
2023-05-10T07:46:01.157Z,30.31
2023-05-10T07:47:05.558Z,30.08
2023-05-10T07:48:09.733Z,29.18
2023-05-10T07:49:12.532Z,29.94
2023-05-10T07:50:16.629Z,29.92
2023-05-10T07:51:19.551Z,29.30
2023-05-10T07:52:23.231Z,29.34
2023-05-10T07:53:27.501Z,28.94
2023-05-10T07:54:31.318Z,28.77
2023-05-10T07:55:34.417Z,28.37
2023-05-10T07:56:38.233Z,28.92
2023-05-10T07:57:41.335Z,29.17
2023-05-10T07:58:45.044Z,28.83
2023-05-10T07:59:47.869Z,28.93
2023-05-10T08:00:51.814Z,30.22
2023-05-10T08:01:57.525Z,28.98
2023-05-10T08:03:00.542Z,29.71
2023-05-10T08:04:07.837Z,29.89
2023-05-10T08:05:11.886Z,29.48
2023-05-10T08:06:16.505Z,29.80
2023-05-10T08:07:20.453Z,29.71
2023-05-10T08:08:23.972Z,31.68
2023-05-10T08:09:27.685Z,30.75
2023-05-10T08:10:30.725Z,30.11
2023-05-10T08:11:35.218Z,30.23
2023-05-10T08:12:39.105Z,30.56
2023-05-10T08:13:43.055Z,29.32
2023-05-10T08:14:47.109Z,29.12
2023-05-10T08:15:50.412Z,29.29
2023-05-10T08:16:54.310Z,30.16
2023-05-10T08:17:59.204Z,29.86
2023-05-10T08:19:02.043Z,29.41
2023-05-10T08:20:06.899Z,29.30
2023-05-10T08:21:10.219Z,29.36
2023-05-10T08:22:13.965Z,29.34
2023-05-10T08:23:17.108Z,29.63
2023-05-10T08:24:20.871Z,29.35
2023-05-10T08:25:23.563Z,29.52
2023-05-10T08:26:28.061Z,29.18
2023-05-10T08:27:30.765Z,29.14
2023-05-10T08:28:34.719Z,29.13
2023-05-10T08:29:49.657Z,28.77
2023-05-10T08:30:54.403Z,28.62
2023-05-10T08:31:58.060Z,28.70
2023-05-10T08:33:02.403Z,28.88
2023-05-10T08:34:06.147Z,28.66
2023-05-10T08:35:09.106Z,29.01
2023-05-10T08:36:15.375Z,29.82
2023-05-10T08:37:18.199Z,29.64
2023-05-10T08:38:21.915Z,29.43
2023-05-10T08:39:30.225Z,29.22
2023-05-10T08:40:34.598Z,28.93
2023-05-10T08:41:41.529Z,28.55
2023-05-10T08:42:53.660Z,28.18
2023-05-10T08:43:58.201Z,28.72
2023-05-10T08:45:01.306Z,29.01
2023-05-10T08:46:11.789Z,29.02
2023-05-10T08:47:18.041Z,29.00
2023-05-10T08:48:26.029Z,29.25
2023-05-10T08:49:33.877Z,29.35
2023-05-10T08:50:39.218Z,30.29
2023-05-10T08:51:46.163Z,29.73
2023-05-10T08:52:53.916Z,29.37
2023-05-10T08:53:57.920Z,29.81
2023-05-10T08:55:01.912Z,29.13
2023-05-10T08:56:06.679Z,28.83
2023-05-10T08:57:09.489Z,28.77
2023-05-10T08:58:13.201Z,28.33
2023-05-10T08:59:17.128Z,28.94
2023-05-10T09:00:23.171Z,29.91
2023-05-10T09:01:29.776Z,29.36
2023-05-10T09:02:34.037Z,29.30
2023-05-10T09:03:41.369Z,29.52
2023-05-10T09:04:44.132Z,28.56
2023-05-10T09:05:48.712Z,28.66
2023-05-10T09:06:52.023Z,30.04
2023-05-10T09:07:55.846Z,30.04
2023-05-10T09:08:58.656Z,29.60
2023-05-10T09:10:02.930Z,28.85
2023-05-10T09:11:06.127Z,28.57
2023-05-10T09:12:12.717Z,28.53
2023-05-10T09:13:16.544Z,28.48
2023-05-10T09:14:22.332Z,28.59
2023-05-10T09:15:25.693Z,28.69
2023-05-10T09:16:29.784Z,28.08
2023-05-10T09:17:32.921Z,28.04
2023-05-10T09:18:38.551Z,27.87
2023-05-10T09:19:42.265Z,28.27
2023-05-10T09:20:46.188Z,28.24
2023-05-10T09:21:50.197Z,28.34
2023-05-10T09:22:54.060Z,28.34
2023-05-10T09:23:57.689Z,28.57
2023-05-10T09:25:08.835Z,29.13
2023-05-10T09:26:12.828Z,28.81
2023-05-10T09:27:15.629Z,28.83
2023-05-10T09:28:19.591Z,28.41
2023-05-10T09:29:22.395Z,28.31
2023-05-10T09:30:28.673Z,28.25
2023-05-10T09:31:52.202Z,27.81
2023-05-10T09:32:57.144Z,27.94
2023-05-10T09:34:02.439Z,28.68
2023-05-10T09:35:10.358Z,28.45
2023-05-10T09:36:13.899Z,29.20
2023-05-10T09:37:17.553Z,28.10
2023-05-10T09:38:20.348Z,29.14
2023-05-10T09:39:33.392Z,27.26
2023-05-10T09:40:37.704Z,27.97
2023-05-10T09:41:44.110Z,28.04
2023-05-10T09:42:54.928Z,28.04
2023-05-10T09:43:58.924Z,28.04
2023-05-10T09:45:04.082Z,27.64
2023-05-10T09:46:12.436Z,27.89
2023-05-10T09:47:20.352Z,28.04
2023-05-10T09:48:26.492Z,28.35
2023-05-10T09:49:31.969Z,28.04
2023-05-10T09:50:35.774Z,27.63
2023-05-10T09:51:38.668Z,26.92
2023-05-10T09:52:54.313Z,27.02
2023-05-10T09:54:12.172Z,26.98
2023-05-10T09:55:16.600Z,26.88
2023-05-10T09:56:35.772Z,26.91
2023-05-10T09:57:39.540Z,26.36
2023-05-10T09:58:43.500Z,26.71
2023-05-10T09:59:46.443Z,26.58
2023-05-10T10:00:53.014Z,26.67
2023-05-10T10:01:58.442Z,26.27
2023-05-10T10:03:03.348Z,28.15
2023-05-10T10:04:07.299Z,27.49
2023-05-10T10:05:14.767Z,27.15
2023-05-10T10:06:29.651Z,26.58
2023-05-10T10:07:35.433Z,27.85
2023-05-10T10:08:38.612Z,26.59
2023-05-10T10:09:42.685Z,26.27
2023-05-10T10:10:47.300Z,26.82
2023-05-10T10:11:50.275Z,27.38
2023-05-10T10:12:54.305Z,27.61
2023-05-10T10:13:57.540Z,26.30
2023-05-10T10:15:02.890Z,25.99
2023-05-10T10:16:10.576Z,26.06
2023-05-10T10:17:15.330Z,26.27
2023-05-10T10:18:20.944Z,26.66
2023-05-10T10:19:25.032Z,26.94
2023-05-10T10:20:31.189Z,26.56
2023-05-10T10:21:34.418Z,26.64
2023-05-10T10:22:39.335Z,26.65
2023-05-10T10:23:42.172Z,26.78
2023-05-10T10:24:45.966Z,26.21
2023-05-10T10:25:50.974Z,26.42
2023-05-10T10:26:56.679Z,26.09
2023-05-10T10:28:11.768Z,25.70
2023-05-10T10:29:23.234Z,25.52
2023-05-10T10:30:31.716Z,25.78
2023-05-10T10:31:41.522Z,26.18
2023-05-10T10:33:16.851Z,25.19
2023-05-10T10:34:32.581Z,24.70
2023-05-10T10:35:38.300Z,24.79
2023-05-10T10:36:48.017Z,24.25
2023-05-10T10:37:53.794Z,24.07
2023-05-10T10:39:00.811Z,24.23
2023-05-10T10:40:28.606Z,24.56
2023-05-10T10:41:33.459Z,24.26
2023-05-10T10:42:51.129Z,25.83
2023-05-10T10:44:25.883Z,24.16
2023-05-10T10:45:29.977Z,23.91
2023-05-10T10:46:33.725Z,23.78
2023-05-10T10:47:38.630Z,24.30
2023-05-10T10:48:42.200Z,24.83
2023-05-10T10:49:52.800Z,23.90
2023-05-10T10:51:01.055Z,24.19
2023-05-10T10:52:29.937Z,23.81
2023-05-10T10:53:34.358Z,23.35
2023-05-10T10:54:37.344Z,23.68
2023-05-10T10:55:49.357Z,23.90
2023-05-10T10:57:14.346Z,23.33
2023-05-10T10:58:33.684Z,23.84
2023-05-10T10:59:36.643Z,23.96
2023-05-10T11:00:42.078Z,23.78
2023-05-10T11:01:46.452Z,23.40
2023-05-10T11:02:51.015Z,23.35
2023-05-10T11:04:20.144Z,23.29
2023-05-10T11:05:43.024Z,23.52
2023-05-10T11:06:47.358Z,23.13
2023-05-10T11:07:58.072Z,22.24
2023-05-10T11:09:02.499Z,22.99
2023-05-10T11:10:08.869Z,21.85
2023-05-10T11:11:16.909Z,22.25
2023-05-10T11:12:19.860Z,22.12
2023-05-10T11:13:33.987Z,22.14
2023-05-10T11:14:37.897Z,22.11
2023-05-10T11:15:50.838Z,21.50
2023-05-10T11:16:54.958Z,21.90
2023-05-10T11:17:57.758Z,21.64
2023-05-10T11:19:04.245Z,21.91
2023-05-10T11:20:11.230Z,21.61
2023-05-10T11:21:17.843Z,22.14
2023-05-10T11:22:22.138Z,21.86
2023-05-10T11:23:25.938Z,22.10
2023-05-10T11:24:29.668Z,21.55
2023-05-10T11:25:33.414Z,21.93
2023-05-10T11:26:38.438Z,21.65
2023-05-10T11:27:43.485Z,21.25
2023-05-10T11:28:48.381Z,21.03
2023-05-10T11:29:54.548Z,21.38
2023-05-10T11:30:59.113Z,21.47
2023-05-10T11:32:03.604Z,21.22
2023-05-10T11:33:06.836Z,22.58
2023-05-10T11:34:10.503Z,21.35
2023-05-10T11:35:14.401Z,21.29
2023-05-10T11:36:19.884Z,21.79
2023-05-10T11:37:25.616Z,21.09
2023-05-10T11:38:29.459Z,22.34
2023-05-10T11:39:33.652Z,20.89
2023-05-10T11:40:37.611Z,20.91
2023-05-10T11:41:43.073Z,20.41
2023-05-10T11:42:46.491Z,20.45
2023-05-10T11:43:52.668Z,19.99
2023-05-10T11:44:55.615Z,20.10
2023-05-10T11:46:02.137Z,20.23
2023-05-10T11:47:04.869Z,20.44
2023-05-10T11:48:08.920Z,19.92
2023-05-10T11:49:14.524Z,20.00
2023-05-10T11:50:19.916Z,19.99
2023-05-10T11:51:24.050Z,18.95
2023-05-10T11:52:30.088Z,19.74
2023-05-10T11:53:33.911Z,19.15
2023-05-10T11:54:37.963Z,18.95
2023-05-10T11:55:41.596Z,18.49
2023-05-10T11:56:46.504Z,18.16
2023-05-10T11:57:53.083Z,18.86
2023-05-10T11:58:58.188Z,18.55
2023-05-10T12:00:02.938Z,18.71
2023-05-10T12:01:11.902Z,18.59
2023-05-10T12:02:15.456Z,17.57
2023-05-10T12:03:20.285Z,17.93
2023-05-10T12:04:24.140Z,18.28
2023-05-10T12:05:28.434Z,18.64
2023-05-10T12:06:37.780Z,17.59
2023-05-10T12:07:42.174Z,17.51
2023-05-10T12:08:47.933Z,17.78
2023-05-10T12:10:05.575Z,18.13
2023-05-10T12:11:12.060Z,18.38
2023-05-10T12:12:18.544Z,17.89
2023-05-10T12:13:23.326Z,17.99
2023-05-10T12:14:26.257Z,18.15
2023-05-10T12:15:30.467Z,18.72
2023-05-10T12:16:34.871Z,18.74
2023-05-10T12:17:41.353Z,18.53
2023-05-10T12:18:47.464Z,18.49
2023-05-10T12:19:50.405Z,19.42
2023-05-10T12:20:55.582Z,17.96
2023-05-10T12:21:59.327Z,18.00
2023-05-10T12:23:04.859Z,17.76
2023-05-10T12:24:09.988Z,18.99
2023-05-10T12:25:12.749Z,19.14
2023-05-10T12:26:17.274Z,17.92
2023-05-10T12:28:41.653Z,19.13
2023-05-10T12:29:45.989Z,18.99
2023-05-10T12:30:49.703Z,18.52
2023-05-10T12:31:54.259Z,19.20
2023-05-10T12:33:03.465Z,19.63
2023-05-10T12:34:07.268Z,19.31
2023-05-10T12:35:10.215Z,19.04
2023-05-10T12:36:16.031Z,18.56
2023-05-10T12:37:18.901Z,19.27
2023-05-10T12:38:32.053Z,20.18
2023-05-10T12:39:43.359Z,20.11
2023-05-10T12:40:47.565Z,20.54
2023-05-10T12:41:50.193Z,20.07
2023-05-10T12:42:54.646Z,19.95
2023-05-10T12:43:57.263Z,20.77
2023-05-10T12:45:01.005Z,20.15
2023-05-10T12:46:09.576Z,20.07
2023-05-10T12:47:12.568Z,19.78
2023-05-10T12:48:16.778Z,19.83
2023-05-10T12:49:20.845Z,19.86
2023-05-10T12:50:25.545Z,19.13
2023-05-10T12:51:29.506Z,18.88
2023-05-10T12:52:33.395Z,18.51
2023-05-10T12:53:40.472Z,18.75
2023-05-10T12:54:44.237Z,18.58
2023-05-10T12:55:48.136Z,18.25
2023-05-10T12:56:50.897Z,18.05
2023-05-10T12:57:54.788Z,18.20
2023-05-10T12:58:57.535Z,18.62
2023-05-10T13:00:01.628Z,19.25
2023-05-10T13:01:05.339Z,20.00
2023-05-10T13:02:11.836Z,19.16
2023-05-10T13:03:15.918Z,19.94
2023-05-10T13:04:19.684Z,19.48
2023-05-10T13:05:23.595Z,19.93
2023-05-10T13:06:27.496Z,20.79
2023-05-10T13:07:31.393Z,21.15
2023-05-10T13:08:34.866Z,21.81
2023-05-10T13:09:40.056Z,21.61
2023-05-10T13:10:44.005Z,21.01
2023-05-10T13:11:49.200Z,20.42
2023-05-10T13:12:53.100Z,19.99
2023-05-10T13:13:55.727Z,19.59
2023-05-10T13:14:59.589Z,19.49
2023-05-10T13:16:02.457Z,19.75
2023-05-10T13:17:06.646Z,19.24
2023-05-10T13:18:10.818Z,19.26
2023-05-10T13:19:14.358Z,19.23
2023-05-10T13:20:18.685Z,18.95
2023-05-10T13:21:21.782Z,18.47
2023-05-10T13:22:36.468Z,18.62
2023-05-10T13:23:43.876Z,18.17
2023-05-10T13:24:49.220Z,18.17
2023-05-10T13:25:51.930Z,18.62
2023-05-10T13:26:56.096Z,18.16
2023-05-10T13:28:00.074Z,18.14
2023-05-10T13:29:03.956Z,18.44
2023-05-10T13:30:09.343Z,18.55
2023-05-10T13:31:13.191Z,18.18
2023-05-10T13:32:16.158Z,18.35
2023-05-10T13:33:20.044Z,19.05
2023-05-10T13:34:24.072Z,18.72
2023-05-10T13:35:26.859Z,19.17
2023-05-10T13:36:30.895Z,19.28
2023-05-10T13:37:37.659Z,19.39
2023-05-10T13:38:40.903Z,20.25
2023-05-10T13:39:44.666Z,19.99
2023-05-10T13:40:49.304Z,20.71
2023-05-10T13:41:53.858Z,20.76
2023-05-10T13:42:57.182Z,20.67
2023-05-10T13:44:00.987Z,21.18
2023-05-10T13:45:05.287Z,21.29
2023-05-10T13:46:09.123Z,21.53
2023-05-10T13:47:13.298Z,21.67
2023-05-10T13:48:16.257Z,21.73
2023-05-10T13:49:20.054Z,21.83
2023-05-10T13:50:22.975Z,22.82
2023-05-10T13:51:26.836Z,23.05
2023-05-10T13:52:30.882Z,23.15
2023-05-10T13:53:33.643Z,22.60
2023-05-10T13:54:37.348Z,23.16
2023-05-10T13:55:40.551Z,22.83
2023-05-10T13:56:45.947Z,23.02
2023-05-10T13:57:49.729Z,23.30
2023-05-10T13:58:52.473Z,23.14
2023-05-10T13:59:57.618Z,22.93
2023-05-10T14:01:01.574Z,23.01
2023-05-10T14:02:06.455Z,23.27
2023-05-10T14:03:10.536Z,23.47
2023-05-10T14:04:14.435Z,23.39